Golconda, Nevada
Current Conditions -  °F | °C
As of 7:56 PM on Wednesday 28 Jan 2015 (Local Time) from KWMC Reporting Station
Clear Clear  
Wind Chill: 39°   Ceiling: Unl
Heat Index: 39°   Visibility: 10mi
Dew Point: 33°   Wind: 3mph
Humidity: 79%   Direction: NA
Pressure: 30.32"   Gusts: NA
Location:  40.95°N, 117.49°W
Report Text: KWMC 290356Z AUTO VRB03KT 10SM CLR 04/01 A3032 RMK AO2 SLP277 T00390006
Loading
Personal Weather Stations






























Interactive Weather Map New forecast layout! Learn more

10-Day Weather Forecast

Advertisements
Track Severe Weather on mobile